Time;durP1;ratioP1;P1;durP2;ratioP2;P2;SDS_P1;SDS_P2;PMS_P1;PMS_P2;Temp;Humidity;BMP_temperature;BMP_pressure;BME280_temperature;BME280_humidity;BME280_pressure;Samples;Min_cycle;Max_cycle;Signal;HPM_P1;HPM_P2
2023/07/10 00:00:20;;;;;;;4.68;2.00;;;;;;;25.02;54.08;101949.44;5030357;28;20076;-63
2023/07/10 00:02:45;;;;;;;5.03;1.85;;;;;;;25.03;54.13;101959.13;5028226;28;20419;-63
2023/07/10 00:05:16;;;;;;;4.05;2.20;;;;;;;25.03;54.14;101961.78;5022340;28;20025;-63
2023/07/10 00:07:42;;;;;;;4.35;2.08;;;;;;;25.04;54.01;101968.81;5031442;28;20191;-63
2023/07/10 00:10:13;;;;;;;4.53;2.00;;;;;;;25.02;53.87;101961.94;5041471;28;20115;-63
2023/07/10 00:12:40;;;;;;;4.13;2.08;;;;;;;25.04;53.77;101963.50;5035238;28;20148;-63
2023/07/10 00:15:18;;;;;;;4.45;1.80;;;;;;;25.03;53.77;101966.28;5040606;28;20591;-63
2023/07/10 00:17:45;;;;;;;4.10;1.90;;;;;;;25.03;53.64;101980.47;5038165;28;20060;-64
2023/07/10 00:20:16;;;;;;;4.43;1.98;;;;;;;25.01;53.47;101982.44;5025189;28;20154;-63
2023/07/10 00:22:41;;;;;;;4.68;2.00;;;;;;;25.03;53.65;101979.63;5038645;28;20115;-62
2023/07/10 00:25:07;;;;;;;3.42;1.67;;;;;;;25.02;53.31;101980.59;5031946;28;20043;-62
2023/07/10 00:27:32;;;;;;;4.88;1.80;;;;;;;25.01;52.97;101971.78;5032194;28;20035;-64
2023/07/10 00:29:58;;;;;;;4.05;1.77;;;;;;;25.02;53.39;101968.09;5036080;28;20029;-64
2023/07/10 00:32:23;;;;;;;4.50;1.80;;;;;;;25.01;53.40;101963.78;5035714;28;20061;-64
2023/07/10 00:34:48;;;;;;;4.20;1.90;;;;;;;24.98;53.60;101954.22;5033497;28;20063;-63
2023/07/10 00:37:13;;;;;;;4.03;1.60;;;;;;;24.99;53.27;101949.72;5033888;28;20270;-63
2023/07/10 00:39:39;;;;;;;4.45;1.70;;;;;;;25.01;53.16;101966.44;5025433;28;20041;-63
2023/07/10 00:42:15;;;;;;;5.35;1.80;;;;;;;24.97;53.39;101973.88;5031169;28;20029;-62
2023/07/10 00:44:47;;;;;;;4.95;1.90;;;;;;;24.97;53.45;101971.19;5025629;28;20025;-64
2023/07/10 00:47:28;;;;;;;4.07;1.75;;;;;;;24.96;52.94;101974.88;5041293;28;20037;-64
2023/07/10 00:50:02;;;;;;;5.10;1.98;;;;;;;24.97;53.06;101973.03;5026985;28;20481;-63
2023/07/10 00:52:33;;;;;;;3.60;1.60;;;;;;;24.97;53.40;101973.88;5028107;28;20087;-63
2023/07/10 00:55:00;;;;;;;3.95;1.83;;;;;;;24.97;53.15;101971.19;5038999;28;20033;-63
2023/07/10 00:57:35;;;;;;;4.40;1.58;;;;;;;24.95;53.24;101967.00;5037235;28;20119;-63
2023/07/10 01:00:14;;;;;;;3.65;1.70;;;;;;;24.95;53.04;101965.16;5037197;28;20207;-64
2023/07/10 01:02:39;;;;;;;4.53;1.70;;;;;;;24.97;53.13;101976.53;5024165;28;20030;-63
2023/07/10 01:05:05;;;;;;;5.50;1.60;;;;;;;24.98;52.84;101974.72;5029381;28;20036;-63
2023/07/10 01:07:36;;;;;;;4.32;1.63;;;;;;;24.96;52.78;101968.69;5023215;28;20060;-63
2023/07/10 01:10:07;;;;;;;3.92;1.42;;;;;;;24.96;53.01;101971.38;5031256;28;20033;-63
2023/07/10 01:12:32;;;;;;;3.75;1.60;;;;;;;24.95;52.91;101970.50;5041089;28;20079;-63
2023/07/10 01:14:57;;;;;;;3.90;1.75;;;;;;;24.95;52.93;101964.34;5030486;28;20033;-64
2023/07/10 01:17:25;;;;;;;3.25;1.40;;;;;;;24.94;52.99;101979.50;5033705;28;20048;-63
2023/07/10 01:19:54;;;;;;;4.70;1.80;;;;;;;24.95;52.82;101970.50;5040626;28;20029;-63
2023/07/10 01:22:20;;;;;;;3.75;1.60;;;;;;;24.95;53.11;101969.69;5023921;28;20030;-64
2023/07/10 01:24:51;;;;;;;4.60;1.73;;;;;;;24.90;53.06;101962.09;5021363;28;20033;-63
2023/07/10 01:27:17;;;;;;;3.50;1.58;;;;;;;24.93;52.67;101964.50;5021070;28;20045;-63
2023/07/10 01:29:47;;;;;;;4.45;1.65;;;;;;;24.91;52.50;101961.13;5029300;28;20045;-63
2023/07/10 01:32:16;;;;;;;3.60;1.40;;;;;;;24.93;52.87;101961.00;5041232;28;20044;-63
2023/07/10 01:34:50;;;;;;;6.53;1.88;;;;;;;24.90;52.87;101954.09;5040596;28;20032;-63
2023/07/10 01:37:15;;;;;;;3.45;1.45;;;;;;;24.91;52.50;101952.28;5041187;28;20044;-63
2023/07/10 01:39:43;;;;;;;3.13;1.30;;;;;;;24.92;52.53;101949.47;5033291;28;20033;-64
2023/07/10 01:42:09;;;;;;;3.33;1.50;;;;;;;24.88;52.50;101947.22;5020502;28;20029;-63
2023/07/10 01:44:43;;;;;;;4.60;1.55;;;;;;;24.91;52.55;101962.94;5030989;28;20040;-63
2023/07/10 01:47:09;;;;;;;;;;;;;;;24.96;52.18;101966.03;5042446;28;20916;-63
2023/07/10 01:49:35;;;;;;;4.15;1.55;;;;;;;24.96;52.39;101972.19;5040122;28;19916;-63
2023/07/10 01:52:03;;;;;;;5.32;1.60;;;;;;;24.91;52.31;101970.94;5044226;28;20040;-63
2023/07/10 01:54:28;;;;;;;3.38;1.45;;;;;;;24.90;52.59;101972.78;5044513;28;20435;-64
2023/07/10 01:56:53;;;;;;;3.92;1.42;;;;;;;24.90;52.16;101977.28;5035153;28;20033;-63
2023/07/10 01:59:19;;;;;;;3.60;1.38;;;;;;;24.90;52.36;101967.44;5025426;28;20025;-64
2023/07/10 02:01:44;;;;;;;4.22;1.80;;;;;;;24.92;52.30;101959.28;5024709;28;20029;-64
2023/07/10 02:04:09;;;;;;;3.53;1.73;;;;;;;24.88;52.13;101974.75;5027590;28;20554;-63
2023/07/10 02:06:37;;;;;;;4.43;1.75;;;;;;;24.89;52.08;101973.75;5037184;28;20029;-64
2023/07/10 02:09:03;;;;;;;4.15;1.60;;;;;;;24.89;52.00;101964.91;5029477;28;20040;-63
2023/07/10 02:11:29;;;;;;;3.25;1.50;;;;;;;24.89;52.49;101962.25;5037530;28;20891;-63
2023/07/10 02:13:54;;;;;;;3.92;1.40;;;;;;;24.87;51.93;101961.56;5035068;28;20033;-63
2023/07/10 02:16:20;;;;;;;3.35;1.42;;;;;;;24.85;52.37;101972.34;5035448;28;20454;-63
2023/07/10 02:18:45;;;;;;;3.10;1.30;;;;;;;24.88;51.92;101973.88;5035310;28;20032;-63
2023/07/10 02:21:10;;;;;;;5.18;1.50;;;;;;;24.88;51.78;101974.75;5033890;28;20043;-63
2023/07/10 02:23:38;;;;;;;3.63;1.50;;;;;;;24.87;52.07;101981.03;5042876;28;20032;-64
2023/07/10 02:26:03;;;;;;;2.92;1.27;;;;;;;24.86;52.00;101987.34;5028580;28;20068;-63
2023/07/10 02:28:29;;;;;;;3.40;1.35;;;;;;;24.87;51.80;101998.88;5033300;28;20052;-64
2023/07/10 02:30:54;;;;;;;4.10;1.40;;;;;;;24.87;52.26;101996.22;5027787;28;20069;-63
2023/07/10 02:33:19;;;;;;;4.05;1.60;;;;;;;24.85;51.72;101995.50;5038565;28;20068;-63
2023/07/10 02:35:46;;;;;;;3.53;1.52;;;;;;;24.85;51.91;101990.16;5036864;28;20104;-63
2023/07/10 02:38:12;;;;;;;5.15;1.63;;;;;;;24.86;52.18;101994.53;5035380;28;20029;-64
2023/07/10 02:40:37;;;;;;;4.65;1.75;;;;;;;24.84;51.77;101989.31;5036101;28;20827;-63
2023/07/10 02:43:03;;;;;;;3.75;1.40;;;;;;;24.83;51.89;101987.63;5034950;28;20024;-64
2023/07/10 02:45:29;;;;;;;4.20;2.08;;;;;;;24.84;52.28;101988.50;5035766;28;20061;-63
2023/07/10 02:47:54;;;;;;;4.25;2.00;;;;;;;24.83;52.27;101984.97;5035449;28;20482;-62
2023/07/10 02:50:19;;;;;;;3.63;1.40;;;;;;;24.85;52.15;101985.69;5028779;28;20033;-63
2023/07/10 02:52:44;;;;;;;3.97;1.75;;;;;;;24.84;52.22;101986.66;5031680;28;20033;-64
2023/07/10 02:55:10;;;;;;;3.90;1.63;;;;;;;24.83;51.80;101992.97;5036005;28;20029;-63
2023/07/10 02:57:36;;;;;;;4.47;1.60;;;;;;;24.84;51.76;101988.50;5032585;28;20034;-64
2023/07/10 03:00:01;;;;;;;4.45;1.90;;;;;;;24.82;51.78;101996.63;5025745;28;20529;-62
2023/07/10 03:02:26;;;;;;;4.85;1.70;;;;;;;24.83;51.94;102000.97;5026784;28;20095;-63
2023/07/10 03:04:52;;;;;;;3.95;1.85;;;;;;;24.85;52.15;102003.50;5034478;28;20041;-63
2023/07/10 03:07:17;;;;;;;5.27;1.90;;;;;;;24.82;51.67;102004.63;5033713;28;20075;-63
2023/07/10 03:09:42;;;;;;;4.30;2.00;;;;;;;24.83;52.15;102005.47;5035430;28;20277;-63
2023/07/10 03:12:08;;;;;;;6.05;2.38;;;;;;;24.82;51.77;102001.97;5028180;28;20071;-64
2023/07/10 03:14:34;;;;;;;5.00;1.80;;;;;;;24.83;52.02;102008.97;5042444;28;20481;-63
2023/07/10 03:16:59;;;;;;;4.30;2.00;;;;;;;24.83;52.00;102008.97;5031814;28;20044;-64
2023/07/10 03:19:29;;;;;;;4.22;1.70;;;;;;;24.80;52.09;102011.91;5025998;28;20988;-63
2023/07/10 03:21:54;;;;;;;3.50;1.90;;;;;;;24.82;52.08;102017.97;5032629;28;20039;-64
2023/07/10 03:24:20;;;;;;;4.90;2.20;;;;;;;24.81;51.59;102016.28;5027162;28;20026;-64
2023/07/10 03:26:46;;;;;;;4.13;2.08;;;;;;;24.83;51.97;102024.97;5031503;28;20709;-64
2023/07/10 03:29:14;;;;;;;4.57;2.13;;;;;;;24.80;51.91;102026.09;5031318;28;20616;-64
2023/07/10 03:31:39;;;;;;;4.47;1.85;;;;;;;24.81;51.52;102027.75;5029188;28;20037;-63
2023/07/10 03:34:05;;;;;;;5.72;2.03;;;;;;;24.80;51.83;102015.44;5026853;28;20029;-63
2023/07/10 03:36:31;;;;;;;5.20;2.20;;;;;;;24.80;51.76;102020.78;5027442;28;20025;-63
2023/07/10 03:38:58;;;;;;;4.80;2.10;;;;;;;24.78;51.63;102022.75;5035255;28;20038;-63
2023/07/10 03:41:23;;;;;;;6.43;2.20;;;;;;;24.78;51.72;102020.06;5029100;28;20513;-64
2023/07/10 03:43:48;;;;;;;5.25;2.10;;;;;;;24.80;51.59;102019.91;5038107;28;20033;-64
2023/07/10 03:46:15;;;;;;;4.60;2.38;;;;;;;24.77;51.34;102023.72;5033541;28;20410;-64
2023/07/10 03:48:41;;;;;;;4.57;2.25;;;;;;;24.79;51.59;102023.56;5030330;28;20036;-64
2023/07/10 03:51:07;;;;;;;4.75;2.28;;;;;;;24.80;51.54;102025.25;5023483;28;20034;-64
2023/07/10 03:53:32;;;;;;;4.93;2.20;;;;;;;24.78;51.45;102024.53;5033598;28;20123;-64
2023/07/10 03:55:58;;;;;;;4.25;1.80;;;;;;;24.80;51.36;102027.91;5042343;28;20151;-64
2023/07/10 03:58:27;;;;;;;4.28;1.83;;;;;;;24.79;51.54;102029.75;5041485;28;20492;-63
2023/07/10 04:00:53;;;;;;;6.15;2.15;;;;;;;24.76;51.42;102030.03;5028449;28;20240;-64
2023/07/10 04:03:21;;;;;;;5.20;2.13;;;;;;;24.77;51.70;102045.03;5041820;28;20482;-64
2023/07/10 04:05:50;;;;;;;4.57;2.25;;;;;;;24.79;51.24;102052.91;5040472;28;20035;-63
2023/07/10 04:08:16;;;;;;;4.50;2.00;;;;;;;24.79;51.35;102052.91;5021702;28;20129;-63
2023/07/10 04:10:48;;;;;;;4.70;2.17;;;;;;;24.76;51.68;102050.50;5027271;28;20117;-62
2023/07/10 04:13:13;;;;;;;4.70;2.30;;;;;;;24.79;51.51;102058.22;5032307;28;20080;-62
2023/07/10 04:15:38;;;;;;;4.97;2.15;;;;;;;24.78;51.35;102059.19;5027829;28;20126;-63
2023/07/10 04:18:04;;;;;;;5.25;2.03;;;;;;;24.76;51.55;102053.19;5024535;28;20497;-63
2023/07/10 04:20:29;;;;;;;5.03;2.72;;;;;;;24.76;51.67;102048.69;5021873;28;20037;-63
2023/07/10 04:22:54;;;;;;;4.65;2.20;;;;;;;24.77;51.47;102050.38;5021977;28;20059;-63
2023/07/10 04:25:20;;;;;;;4.22;2.10;;;;;;;24.77;51.10;102049.53;5033876;28;20029;-63
2023/07/10 04:27:45;;;;;;;4.70;2.33;;;;;;;24.74;51.30;102042.66;5023633;28;20112;-63
2023/07/10 04:30:12;;;;;;;4.72;2.13;;;;;;;24.77;51.60;102053.03;5039680;28;20044;-63
2023/07/10 04:32:37;;;;;;;4.18;2.08;;;;;;;24.76;51.42;102045.19;5041151;28;20098;-63
2023/07/10 04:35:02;;;;;;;5.63;2.35;;;;;;;24.76;51.40;102050.50;5037020;28;20029;-63
2023/07/10 04:37:28;;;;;;;5.50;2.30;;;;;;;24.74;51.70;102047.16;5022014;28;20405;-63
2023/07/10 04:39:53;;;;;;;5.07;2.27;;;;;;;24.73;51.44;102045.47;5021570;28;20107;-63
2023/07/10 04:42:18;;;;;;;4.38;2.00;;;;;;;24.73;51.63;102042.78;5021474;28;20278;-63
2023/07/10 04:44:44;;;;;;;4.65;2.45;;;;;;;24.74;51.72;102050.66;5021720;28;20037;-63
2023/07/10 04:47:09;;;;;;;5.50;2.40;;;;;;;24.73;51.58;102040.97;5021672;28;20029;-62
2023/07/10 04:49:34;;;;;;;4.28;2.38;;;;;;;24.74;51.10;102047.97;5039971;28;20323;-63
2023/07/10 04:51:59;;;;;;;3.83;2.03;;;;;;;24.74;51.43;102055.16;5041144;28;20032;-63
2023/07/10 04:54:25;;;;;;;5.15;2.35;;;;;;;24.75;51.42;102054.16;5038414;28;20496;-63
2023/07/10 04:56:52;;;;;;;4.35;2.42;;;;;;;24.74;51.28;102057.81;5034798;28;20033;-63
2023/07/10 04:59:17;;;;;;;4.25;2.17;;;;;;;24.74;51.50;102058.66;5029049;28;20844;-64
2023/07/10 05:01:43;;;;;;;5.03;2.58;;;;;;;24.75;51.16;102067.47;5028324;28;20033;-63
2023/07/10 05:04:08;;;;;;;4.60;2.42;;;;;;;24.72;51.04;102065.94;5040900;28;20465;-63
2023/07/10 05:06:36;;;;;;;4.30;2.30;;;;;;;24.72;51.70;102070.41;5041279;28;20072;-63
2023/07/10 05:09:01;;;;;;;4.65;2.15;;;;;;;24.71;51.52;102068.75;5041129;28;20060;-62
2023/07/10 05:11:28;;;;;;;5.72;2.58;;;;;;;24.74;51.21;102076.47;5040832;28;20060;-63
2023/07/10 05:13:54;;;;;;;4.88;2.40;;;;;;;24.72;51.55;102073.09;5025766;28;21003;-62
2023/07/10 05:16:19;;;;;;;4.78;2.50;;;;;;;24.72;51.33;102073.09;5038614;28;20056;-63
2023/07/10 05:18:45;;;;;;;5.72;2.33;;;;;;;24.72;51.31;102073.09;5024777;28;20474;-63
2023/07/10 05:21:11;;;;;;;4.80;2.08;;;;;;;24.74;51.18;102076.47;5032351;28;20037;-62
2023/07/10 05:23:36;;;;;;;6.43;2.10;;;;;;;24.67;51.67;102073.50;5034907;28;20392;-63
2023/07/10 05:26:03;;;;;;;4.05;2.03;;;;;;;24.74;51.60;102082.63;5036287;28;20025;-64
2023/07/10 05:28:29;;;;;;;4.13;2.20;;;;;;;24.72;51.59;102089.94;5040780;28;20465;-63
2023/07/10 05:30:58;;;;;;;4.05;1.85;;;;;;;24.69;51.32;102074.22;5038956;28;20036;-63
2023/07/10 05:33:23;;;;;;;4.65;2.10;;;;;;;24.72;51.33;102087.28;5021142;28;20032;-63
2023/07/10 05:36:00;;;;;;;5.50;2.28;;;;;;;24.69;51.61;102084.03;5020840;28;20034;-64
2023/07/10 05:38:28;;;;;;;3.80;1.90;;;;;;;24.73;51.47;102091.59;5021161;28;20549;-64
2023/07/10 05:40:54;;;;;;;6.57;2.13;;;;;;;24.72;51.45;102087.28;5038704;28;20036;-63
2023/07/10 05:43:20;;;;;;;4.72;1.80;;;;;;;24.72;51.35;102084.59;5040672;28;20032;-63
2023/07/10 05:45:47;;;;;;;4.75;2.03;;;;;;;24.72;51.59;102073.09;5027095;28;20112;-64
2023/07/10 05:48:12;;;;;;;3.28;1.73;;;;;;;24.72;51.69;102073.94;5020889;28;20033;-64
2023/07/10 05:50:38;;;;;;;4.97;1.75;;;;;;;24.70;51.25;102072.38;5020538;28;20379;-64
2023/07/10 05:53:03;;;;;;;4.18;1.90;;;;;;;24.71;51.45;102074.91;5020890;28;20029;-64
2023/07/10 05:55:28;;;;;;;3.95;1.85;;;;;;;24.72;51.33;102081.06;5036136;28;20198;-63
2023/07/10 05:57:54;;;;;;;3.53;1.52;;;;;;;24.72;51.65;102081.94;5024546;28;20957;-62
2023/07/10 06:00:19;;;;;;;3.70;1.75;;;;;;;24.73;51.69;102082.78;5030193;28;20450;-63
2023/07/10 06:02:44;;;;;;;5.13;1.80;;;;;;;24.70;51.72;102081.22;5033092;28;20033;-63
2023/07/10 06:05:10;;;;;;;3.17;1.50;;;;;;;24.70;51.62;102078.56;5034774;28;20044;-64
2023/07/10 06:07:35;;;;;;;3.47;1.47;;;;;;;24.71;51.21;102082.09;5022924;28;20037;-63
2023/07/10 06:10:00;;;;;;;3.73;1.60;;;;;;;24.73;51.62;102085.44;5023349;28;20344;-63
2023/07/10 06:12:26;;;;;;;3.60;1.80;;;;;;;24.73;51.38;102080.09;5033254;28;20269;-64
2023/07/10 06:14:51;;;;;;;5.30;1.58;;;;;;;24.71;51.44;102074.09;5035776;28;20029;-64
2023/07/10 06:17:16;;;;;;;3.60;1.47;;;;;;;24.72;51.72;102079.28;5026665;28;20479;-64
2023/07/10 06:19:42;;;;;;;4.18;1.80;;;;;;;24.74;51.49;102089.81;5040348;28;20268;-62
2023/07/10 06:22:10;;;;;;;6.80;2.50;;;;;;;24.73;50.38;102082.78;5029151;28;20043;-63
2023/07/10 06:24:35;;;;;;;5.13;2.13;;;;;;;24.76;49.73;102085.16;5020484;28;20040;-63
2023/07/10 06:27:02;;;;;;;5.53;2.40;;;;;;;24.70;49.71;102094.53;5020295;28;20041;-63
2023/07/10 06:29:28;;;;;;;7.28;2.50;;;;;;;24.65;49.67;102095.97;5035039;28;20090;-64
2023/07/10 06:31:53;;;;;;;7.57;2.72;;;;;;;24.59;49.37;102100.88;5021778;28;20026;-64
2023/07/10 06:34:18;;;;;;;6.53;2.78;;;;;;;24.54;49.62;102096.88;5037797;28;20076;-63
2023/07/10 06:36:44;;;;;;;9.65;2.70;;;;;;;24.51;50.02;102097.97;5039078;28;20408;-62
2023/07/10 06:39:09;;;;;;;8.52;3.00;;;;;;;24.51;49.93;102105.16;5039644;28;20036;-64
2023/07/10 06:41:34;;;;;;;6.28;2.72;;;;;;;24.45;49.23;102109.22;5024345;28;20452;-65
2023/07/10 06:44:00;;;;;;;5.80;2.55;;;;;;;24.37;49.40;102103.69;5042479;28;20461;-65
2023/07/10 06:46:26;;;;;;;6.85;2.88;;;;;;;24.27;49.98;102101.88;5038849;28;20025;-66
2023/07/10 06:48:51;;;;;;;9.80;2.83;;;;;;;24.20;50.24;102098.06;5030668;28;20042;-64
2023/07/10 06:51:17;;;;;;;7.07;2.63;;;;;;;24.13;49.53;102101.38;5023721;28;20052;-64
2023/07/10 06:53:42;;;;;;;7.75;2.72;;;;;;;24.05;49.64;102104.72;5036862;28;20080;-66
2023/07/10 06:56:07;;;;;;;7.25;2.40;;;;;;;24.03;48.96;102101.34;5033140;28;20082;-64
2023/07/10 06:58:34;;;;;;;7.10;2.38;;;;;;;23.98;50.06;102108.91;5043294;28;20039;-64
2023/07/10 07:01:00;;;;;;;8.18;2.25;;;;;;;23.95;49.67;102109.16;5042954;28;20107;-64
2023/07/10 07:03:26;;;;;;;7.03;2.22;;;;;;;23.87;49.09;102102.66;5036699;28;20396;-65
2023/07/10 07:05:52;;;;;;;8.15;2.72;;;;;;;23.85;49.14;102098.47;5043436;28;20115;-64
2023/07/10 07:08:19;;;;;;;8.65;2.63;;;;;;;23.84;48.93;102102.94;5036701;28;20052;-63
2023/07/10 07:10:45;;;;;;;8.43;2.35;;;;;;;23.81;48.24;102103.16;5032849;28;20566;-66
2023/07/10 07:13:11;;;;;;;7.95;2.40;;;;;;;23.81;48.88;102105.00;5034420;28;20041;-66
2023/07/10 07:15:37;;;;;;;5.68;2.22;;;;;;;23.77;49.44;102103.59;5039143;28;20040;-65
2023/07/10 07:18:04;;;;;;;7.75;2.13;;;;;;;23.77;48.54;102111.56;5037507;28;20052;-64
2023/07/10 07:20:30;;;;;;;8.13;2.17;;;;;;;23.77;49.22;102112.41;5031333;28;20052;-68
2023/07/10 07:22:55;;;;;;;8.18;2.00;;;;;;;23.75;49.33;102108.16;5031712;28;20032;-65
2023/07/10 07:25:21;;;;;;;6.43;1.95;;;;;;;23.72;49.52;102115.47;5038128;28;20036;-66
2023/07/10 07:27:46;;;;;;;8.52;2.13;;;;;;;23.70;49.65;102112.09;5023153;28;20120;-67
2023/07/10 07:30:12;;;;;;;5.60;1.92;;;;;;;23.75;49.18;102125.00;5028779;28;20037;-65
2023/07/10 07:32:37;;;;;;;6.55;2.35;;;;;;;23.78;49.25;102126.53;5029803;28;20120;-66
2023/07/10 07:35:03;;;;;;;7.60;2.25;;;;;;;23.79;49.00;102126.41;5028387;28;20116;-66
2023/07/10 07:37:28;;;;;;;6.68;2.40;;;;;;;23.84;49.50;102129.56;5034551;28;20025;-68
2023/07/10 07:39:58;;;;;;;7.32;1.98;;;;;;;23.86;49.31;102129.41;5025525;28;20079;-67
2023/07/10 07:42:24;;;;;;;6.07;1.90;;;;;;;23.87;49.95;102125.78;5032388;28;20163;-65
2023/07/10 07:44:49;;;;;;;7.05;2.50;;;;;;;23.97;49.42;102134.66;5036629;28;20116;-70
2023/07/10 07:47:15;;;;;;;6.95;2.70;;;;;;;24.00;49.80;102128.25;5035933;28;20190;-66
2023/07/10 07:49:41;;;;;;;8.57;2.45;;;;;;;24.03;49.32;102123.47;5029669;28;20034;-67
2023/07/10 07:52:06;;;;;;;6.93;2.38;;;;;;;24.09;49.26;102124.78;5034244;28;20055;-67
2023/07/10 07:54:32;;;;;;;6.13;2.10;;;;;;;24.12;49.09;102124.50;5029180;28;20513;-68
2023/07/10 07:56:57;;;;;;;7.13;2.60;;;;;;;24.18;48.71;102123.97;5025738;28;20048;-67
2023/07/10 07:59:22;;;;;;;7.47;2.40;;;;;;;24.18;49.23;102117.78;5037979;28;20051;-66
2023/07/10 08:01:49;;;;;;;6.10;2.30;;;;;;;24.22;48.96;102113.91;5023201;28;20037;-66
2023/07/10 08:04:15;;;;;;;7.32;2.28;;;;;;;24.23;48.54;102115.59;5031075;28;20033;-69
2023/07/10 08:06:40;;;;;;;6.90;2.22;;;;;;;24.23;47.90;102105.78;5039009;28;20033;-68
2023/07/10 08:09:05;;;;;;;6.22;2.30;;;;;;;24.20;48.19;102094.56;5030727;28;20134;-69
2023/07/10 08:11:31;;;;;;;5.88;1.92;;;;;;;24.30;47.21;102106.06;5035769;28;20039;-68
2023/07/10 08:13:56;;;;;;;7.40;1.90;;;;;;;24.29;47.23;102099.03;5035866;28;20519;-68
2023/07/10 08:16:21;;;;;;;5.22;1.58;;;;;;;24.36;47.12;102104.69;5038732;28;20277;-65
2023/07/10 08:18:48;;;;;;;6.45;2.00;;;;;;;24.37;48.06;102104.56;5030195;28;20032;-68
2023/07/10 08:21:14;;;;;;;7.45;2.28;;;;;;;24.38;47.40;102100.91;5031573;28;20034;-70
2023/07/10 08:23:43;;;;;;;5.60;1.83;;;;;;;24.41;47.05;102105.97;5028454;28;20047;-69
2023/07/10 08:26:08;;;;;;;7.95;2.05;;;;;;;24.46;48.12;102108.22;5034969;28;20036;-70
2023/07/10 08:28:34;;;;;;;6.35;1.90;;;;;;;24.50;47.45;102114.09;5029889;28;20086;-70
2023/07/10 08:31:00;;;;;;;6.78;2.10;;;;;;;24.51;47.38;102105.97;5035148;28;20041;-69
2023/07/10 08:33:25;;;;;;;7.10;2.03;;;;;;;24.52;47.30;102104.19;5035784;28;20052;-71
2023/07/10 08:36:03;;;;;;;6.72;1.70;;;;;;;24.54;47.60;102111.03;5039924;28;20036;-69
2023/07/10 08:38:28;;;;;;;8.90;1.58;;;;;;;24.58;48.14;102104.50;5021546;28;20049;-67
2023/07/10 08:40:57;;;;;;;5.57;1.42;;;;;;;24.61;48.20;102104.22;4144368;28;10000827;-69
2023/07/10 08:43:31;;;;;;;6.22;1.50;;;;;;;24.69;48.10;102114.19;4138728;28;10000741;-67
2023/07/10 08:46:03;;;;;;;4.55;1.35;;;;;;;24.68;48.35;102107.19;5027117;28;20073;-70
2023/07/10 08:48:44;;;;;;;4.88;1.55;;;;;;;24.72;48.21;102107.72;4798849;28;10001049;-70
2023/07/10 08:51:14;;;;;;;5.75;1.38;;;;;;;24.78;48.23;102108.03;4505562;28;10001663;-70
2023/07/10 08:53:45;;;;;;;8.65;2.00;;;;;;;24.81;47.92;102090.91;5035436;28;20041;-69
2023/07/10 08:56:25;;;;;;;4.93;1.35;;;;;;;24.82;48.07;102097.94;4147332;28;10000614;-69
2023/07/10 08:58:54;;;;;;;5.65;1.50;;;;;;;24.84;47.91;102095.97;5017263;28;20037;-70
2023/07/10 09:01:36;;;;;;;5.68;1.60;;;;;;;24.87;48.25;102101.03;4162959;28;10000365;-68
2023/07/10 09:04:04;;;;;;;12.73;1.90;;;;;;;24.93;47.84;102112.97;4155998;28;10001026;-68
2023/07/10 09:06:48;;;;;;;5.50;1.38;;;;;;;24.90;47.88;102110.59;5031295;28;20026;-69
2023/07/10 09:09:29;;;;;;;8.53;2.63;;;;;;;24.92;45.48;102122.78;4153480;28;10000438;-69
2023/07/10 09:11:57;;;;;;;5.03;1.50;;;;;;;24.93;45.58;102113.81;4140929;28;10000990;-69
2023/07/10 09:14:38;;;;;;;8.32;1.75;;;;;;;24.92;45.81;102112.09;5017170;28;20033;-69
2023/07/10 09:17:15;;;;;;;12.25;1.95;;;;;;;24.94;46.70;102101.31;5030729;28;20837;-72
2023/07/10 09:19:45;;;;;;;4.70;1.50;;;;;;;24.97;47.30;102109.84;5034326;28;20094;-72
2023/07/10 09:22:11;;;;;;;6.00;1.30;;;;;;;24.98;47.32;102102.72;5029780;28;20033;-69
2023/07/10 09:24:36;;;;;;;9.85;1.50;;;;;;;25.01;46.92;102107.78;5037152;28;20105;-69
2023/07/10 09:27:08;;;;;;;4.68;1.50;;;;;;;25.02;47.27;102111.28;5034044;28;20040;-70
2023/07/10 09:29:38;;;;;;;4.78;1.30;;;;;;;25.05;47.09;102109.16;5026373;28;20063;-69
2023/07/10 09:32:13;;;;;;;6.38;1.60;;;;;;;25.08;47.68;102110.72;5029581;28;20040;-69
2023/07/10 09:34:45;;;;;;;4.88;1.30;;;;;;;25.06;47.44;102105.53;5032235;28;20036;-71
2023/07/10 09:37:15;;;;;;;6.18;1.58;;;;;;;25.09;47.80;102109.75;5029072;28;20120;-69
2023/07/10 09:39:41;;;;;;;6.15;1.35;;;;;;;25.12;47.53;102109.47;5021371;28;20041;-70
2023/07/10 09:42:13;;;;;;;6.20;1.50;;;;;;;25.12;47.54;102112.13;5020440;28;20048;-70
2023/07/10 09:44:45;;;;;;;3.55;1.40;;;;;;;25.14;47.34;102108.31;5020182;28;20052;-69
2023/07/10 09:47:13;;;;;;;4.75;1.30;;;;;;;25.14;47.26;102107.50;5035481;28;20037;-69
2023/07/10 09:49:57;;;;;;;6.07;1.55;;;;;;;25.04;47.69;102099.50;5022606;28;20041;-70
2023/07/10 09:52:30;;;;;;;4.97;1.20;;;;;;;25.04;47.84;102106.63;5025239;28;20143;-70
2023/07/10 09:55:12;;;;;;;4.32;1.30;;;;;;;24.98;47.96;102108.88;5034528;28;20025;-69
2023/07/10 09:57:59;;;;;;;6.00;1.58;;;;;;;24.97;48.00;102107.19;5026482;28;20029;-68
2023/07/10 10:00:26;;;;;;;5.05;1.20;;;;;;;25.02;48.02;102120.09;5034605;28;20047;-68
2023/07/10 10:03:02;;;;;;;4.07;1.50;;;;;;;24.99;47.93;102113.25;5039189;28;20025;-68
2023/07/10 10:05:28;;;;;;;4.57;1.42;;;;;;;24.96;48.20;102107.38;5030385;28;20048;-69
2023/07/10 10:08:16;;;;;;;3.58;1.35;;;;;;;24.96;48.07;102104.69;5024046;28;20033;-69
2023/07/10 10:10:42;;;;;;;4.43;1.40;;;;;;;24.98;48.15;102102.72;5037440;28;20043;-70
2023/07/10 10:13:24;;;;;;;4.00;1.20;;;;;;;24.97;47.97;102101.03;5037215;28;20911;-70
2023/07/10 10:16:03;;;;;;;3.83;1.10;;;;;;;24.95;47.95;102103.00;5034485;28;20262;-69
2023/07/10 10:18:58;;;;;;;5.00;1.50;;;;;;;24.92;48.17;102097.94;5038960;28;20037;-69
2023/07/10 10:21:24;;;;;;;;;;;;;;;24.99;47.85;102102.59;5031408;28;20041;-69
2023/07/10 10:23:52;;;;;;;3.42;1.00;;;;;;;24.99;47.74;102097.25;5026513;28;19927;-70
2023/07/10 10:26:20;;;;;;;3.35;1.33;;;;;;;24.94;47.91;102098.63;5032010;28;20021;-66
2023/07/10 10:29:01;;;;;;;5.43;1.30;;;;;;;24.92;47.86;102097.94;5022391;28;20059;-66
2023/07/10 10:31:31;;;;;;;4.93;1.33;;;;;;;24.91;48.24;102097.13;5030794;28;20059;-66
2023/07/10 10:34:22;;;;;;;2.90;1.00;;;;;;;24.90;48.16;102098.09;5032260;28;20075;-66
2023/07/10 10:36:58;;;;;;;4.50;1.50;;;;;;;24.87;48.05;102098.34;5041492;28;20036;-67
2023/07/10 10:39:36;;;;;;;3.90;1.27;;;;;;;24.87;48.43;102097.53;5029799;28;20177;-66
2023/07/10 10:42:21;;;;;;;4.65;1.25;;;;;;;24.89;48.50;102090.22;5037389;28;20040;-65
2023/07/10 10:45:05;;;;;;;3.70;1.30;;;;;;;24.86;48.65;102086.00;5043584;28;20086;-67
2023/07/10 10:47:44;;;;;;;;;;;;;;;24.93;48.17;102094.31;5044166;28;20035;-68
2023/07/10 10:50:35;;;;;;;4.75;1.15;;;;;;;24.93;48.24;102092.47;5042114;28;20370;-68
2023/07/10 10:53:21;;;;;;;2.97;1.10;;;;;;;24.94;48.16;102101.31;5030344;28;20036;-70
2023/07/10 10:56:12;;;;;;;6.25;1.20;;;;;;;25.02;48.10;102101.44;4989452;28;20054;-72
2023/07/10 10:58:56;;;;;;;5.69;1.41;;;;;;;25.06;48.52;102108.19;4932517;28;10000695;-70
2023/07/10 11:01:35;;;;;;;5.11;1.14;;;;;;;25.09;48.18;102113.25;4429578;28;10001627;-70
2023/07/10 11:04:22;;;;;;;4.30;1.15;;;;;;;25.14;48.61;102124.31;4505531;28;10001115;-69
2023/07/10 11:07:00;;;;;;;2.90;0.95;;;;;;;25.15;48.25;102125.16;5034831;28;20033;-71
2023/07/10 11:09:41;;;;;;;4.97;1.30;;;;;;;25.17;48.38;102118.72;4173252;28;10000466;-69
2023/07/10 11:12:15;;;;;;;5.40;1.30;;;;;;;25.19;48.31;102113.25;5023925;28;20714;-71
2023/07/10 11:14:42;;;;;;;5.10;1.13;;;;;;;25.24;48.30;102110.97;5025819;28;20120;-71
2023/07/10 11:17:12;;;;;;;3.38;1.20;;;;;;;25.24;48.23;102105.66;4152189;28;10001462;-68
2023/07/10 11:19:38;;;;;;;4.95;1.20;;;;;;;25.29;47.99;102103.44;5031530;28;20210;-69
2023/07/10 11:22:37;;;;;;;4.95;1.55;;;;;;;25.30;47.95;102102.44;5034845;28;20033;-68
2023/07/10 11:25:03;;;;;;;17.07;1.83;;;;;;;25.34;47.84;102095.84;4163382;28;10001607;-68
2023/07/10 11:27:41;;;;;;;5.55;1.20;;;;;;;25.32;48.37;102087.13;5040002;28;20033;-68
2023/07/10 11:30:15;;;;;;;5.22;1.30;;;;;;;25.34;48.26;102095.00;5035627;28;20128;-70